Bethlehem, New Hampshire
Current Conditions -  °F | °C
As of 12:52 AM on Thursday 23 Oct 2014 (Local Time) from KHIE Reporting Station
Overcast Overcast  
Wind Chill: 43°   Ceiling: 2300
Heat Index: 48°   Visibility: 7mi
Dew Point: 45°   Wind: 10mph
Humidity: 89%   Direction: 50°NE
Pressure: 30"   Gusts: NA
Location:  44.28°N, 71.69°W
Report Text: KHIE 230452Z AUTO 05009KT 7SM SCT016 OVC023 09/07 A3000 RMK AO2 SLP164 T00890072 401170072
Loading
Personal Weather Stations






























Interactive Weather Map
Tropical Storm Tracking
New forecast layout! Learn more

10-Day Weather Forecast

Advertisements
Track Severe Weather on mobile